Time;durP1;ratioP1;P1;durP2;ratioP2;P2;SDS_P1;SDS_P2;PMS_P1;PMS_P2;Temp;Humidity;BMP_temperature;BMP_pressure;BME280_temperature;BME280_humidity;BME280_pressure;Samples;Min_cycle;Max_cycle;Signal;HPM_P1;HPM_P2
2021/04/25 00:00:01;;;;;;;10.93;5.78;;;7.50;99.90;;;;;;5004349;28;20153;-89
2021/04/25 00:02:28;;;;;;;14.10;6.68;;;7.60;99.90;;;;;;5037207;28;20037;-90
2021/04/25 00:04:58;;;;;;;15.07;6.55;;;7.60;99.90;;;;;;5014680;28;20132;-91
2021/04/25 00:07:24;;;;;;;12.23;6.30;;;7.50;99.90;;;;;;5023543;28;20073;-92
2021/04/25 00:09:51;;;;;;;9.85;5.75;;;7.50;99.90;;;;;;5013938;28;20136;-90
2021/04/25 00:12:17;;;;;;;11.30;5.93;;;7.50;99.90;;;;;;5017626;28;20404;-89
2021/04/25 00:14:43;;;;;;;16.75;6.30;;;7.40;99.90;;;;;;5017974;28;20073;-90
2021/04/25 00:17:10;;;;;;;10.13;6.05;;;7.30;99.90;;;;;;5009134;28;20132;-89
2021/04/25 00:19:39;;;;;;;9.70;5.28;;;7.30;99.90;;;;;;5033609;28;20042;-89
2021/04/25 00:22:08;;;;;;;14.55;6.72;;;7.20;99.90;;;;;;5033664;28;20088;-90
2021/04/25 00:24:34;;;;;;;15.68;7.13;;;7.20;99.90;;;;;;5023866;28;20531;-90
2021/04/25 00:27:01;;;;;;;14.68;6.18;;;7.10;99.90;;;;;;5034342;28;20076;-90
2021/04/25 00:29:27;;;;;;;12.52;5.72;;;7.00;99.90;;;;;;5018181;28;20133;-90
2021/04/25 00:31:54;;;;;;;17.15;5.90;;;6.90;99.90;;;;;;5018552;28;21368;-90
2021/04/25 00:34:20;;;;;;;9.23;5.63;;;6.80;99.90;;;;;;5015488;28;20080;-90
2021/04/25 00:36:47;;;;;;;14.60;6.75;;;6.80;99.90;;;;;;5020396;28;20075;-89
2021/04/25 00:39:13;;;;;;;12.38;6.47;;;6.70;99.90;;;;;;5036036;28;20530;-89
2021/04/25 00:41:40;;;;;;;14.50;6.30;;;6.70;99.90;;;;;;5017211;28;20049;-89
2021/04/25 00:44:11;;;;;;;13.35;6.18;;;6.60;99.90;;;;;;5032890;28;20172;-90
2021/04/25 00:46:39;;;;;;;15.43;7.45;;;6.70;99.90;;;;;;5015176;28;20114;-89
2021/04/25 00:49:06;;;;;;;14.18;6.90;;;6.60;99.90;;;;;;5035195;28;20089;-87
2021/04/25 00:51:33;;;;;;;12.05;5.95;;;6.70;99.90;;;;;;5021040;28;20104;-90
2021/04/25 00:54:02;;;;;;;16.85;6.30;;;6.70;99.90;;;;;;5019676;28;20152;-92
2021/04/25 00:56:31;;;;;;;13.27;6.05;;;6.70;99.90;;;;;;5012607;28;20467;-89
2021/04/25 00:59:01;;;;;;;14.73;6.75;;;6.60;99.90;;;;;;5018893;28;20136;-91
2021/04/25 01:01:27;;;;;;;14.68;6.35;;;6.60;99.90;;;;;;5018479;28;20092;-90
2021/04/25 01:03:54;;;;;;;10.85;5.68;;;6.60;99.90;;;;;;4999474;28;20489;-91
2021/04/25 01:06:20;;;;;;;13.73;6.30;;;6.60;99.90;;;;;;5024772;28;20126;-91
2021/04/25 01:08:47;;;;;;;10.57;6.13;;;6.60;99.90;;;;;;5016363;28;20164;-91
2021/04/25 01:11:14;;;;;;;11.07;5.82;;;6.70;99.90;;;;;;5021562;28;20120;-91
2021/04/25 01:13:43;;;;;;;11.90;6.28;;;6.70;99.90;;;;;;5019150;28;20128;-92
2021/04/25 01:16:10;;;;;;;11.35;6.40;;;6.70;99.90;;;;;;5019291;28;20053;-89
2021/04/25 01:18:36;;;;;;;10.65;5.53;;;6.60;99.90;;;;;;5020879;28;20128;-91
2021/04/25 01:21:05;;;;;;;13.77;6.53;;;6.60;99.90;;;;;;4984300;28;20049;-91
2021/04/25 01:23:31;;;;;;;10.73;6.85;;;6.60;99.90;;;;;;5017726;28;20107;-92
2021/04/25 01:26:03;;;;;;;10.70;6.00;;;6.60;99.90;;;;;;5010726;28;20517;-91
2021/04/25 01:28:30;;;;;;;13.32;6.25;;;6.50;99.90;;;;;;5010595;28;20109;-91
2021/04/25 01:30:59;;;;;;;11.75;6.22;;;6.40;99.90;;;;;;5015632;28;20049;-89
2021/04/25 01:33:27;;;;;;;18.95;6.35;;;6.30;99.90;;;;;;5016471;28;20041;-91
2021/04/25 01:35:56;;;;;;;13.70;6.68;;;6.20;99.90;;;;;;5024555;28;20080;-89
2021/04/25 01:38:23;;;;;;;10.32;6.43;;;6.10;99.90;;;;;;5021103;28;20128;-92
2021/04/25 01:40:49;;;;;;;13.98;6.88;;;6.10;99.90;;;;;;5017557;28;20060;-92
2021/04/25 01:43:15;;;;;;;17.17;7.03;;;6.00;99.90;;;;;;5011089;28;20067;-93
2021/04/25 01:45:42;;;;;;;13.88;7.10;;;5.90;99.90;;;;;;5016459;28;20531;-91
2021/04/25 01:48:09;;;;;;;14.77;7.22;;;5.90;99.90;;;;;;5033560;28;20501;-90
2021/04/25 01:50:37;;;;;;;11.55;6.30;;;5.80;99.90;;;;;;5038724;28;20106;-90
2021/04/25 01:53:05;;;;;;;9.05;6.10;;;5.70;99.90;;;;;;5020043;28;20084;-91
2021/04/25 01:55:34;;;;;;;14.23;6.63;;;5.70;99.90;;;;;;5026487;28;20117;-91
2021/04/25 01:58:01;;;;;;;20.13;7.15;;;5.70;99.90;;;;;;5024145;28;20444;-92
2021/04/25 02:00:34;;;;;;;12.38;6.57;;;5.70;99.90;;;;;;5038276;28;20546;-90
2021/04/25 02:03:03;;;;;;;13.60;6.63;;;5.60;99.90;;;;;;5027607;28;20087;-90
2021/04/25 02:05:30;;;;;;;12.73;6.32;;;5.50;99.90;;;;;;5008186;28;20077;-91
2021/04/25 02:07:56;;;;;;;12.65;6.38;;;5.40;99.90;;;;;;4989510;28;20080;-91
2021/04/25 02:10:24;;;;;;;15.05;6.72;;;5.40;99.90;;;;;;5013408;28;20155;-91
2021/04/25 02:12:51;;;;;;;13.95;7.25;;;5.30;99.90;;;;;;5012077;28;20114;-92
2021/04/25 02:15:18;;;;;;;14.38;6.75;;;5.30;99.90;;;;;;5014770;28;20451;-90
2021/04/25 02:17:45;;;;;;;15.18;7.30;;;5.20;99.90;;;;;;5024874;28;20041;-90
2021/04/25 02:20:13;;;;;;;10.77;6.60;;;5.10;99.90;;;;;;5037599;28;20064;-90
2021/04/25 02:22:40;;;;;;;14.50;6.65;;;5.10;99.90;;;;;;5036123;28;20065;-91
2021/04/25 02:25:08;;;;;;;17.77;7.60;;;5.10;99.90;;;;;;5012761;28;20439;-91
2021/04/25 02:27:38;;;;;;;12.30;6.80;;;5.10;99.90;;;;;;5006420;28;20049;-90
2021/04/25 02:30:20;;;;;;;14.60;7.47;;;5.00;99.90;;;;;;5001612;28;20477;-90
2021/04/25 02:32:47;;;;;;;16.00;6.78;;;5.10;99.90;;;;;;5014974;28;20056;-91
2021/04/25 02:35:22;;;;;;;13.88;7.32;;;5.10;99.90;;;;;;5033461;28;20123;-90
2021/04/25 02:37:49;;;;;;;17.75;7.78;;;5.10;99.90;;;;;;5033472;28;20056;-92
2021/04/25 02:40:21;;;;;;;17.27;7.60;;;5.00;99.90;;;;;;5027004;28;20167;-92
2021/04/25 02:42:48;;;;;;;13.25;6.80;;;5.00;99.90;;;;;;5029337;28;20049;-92
2021/04/25 02:45:18;;;;;;;12.57;7.30;;;5.00;99.90;;;;;;5024642;28;20489;-92
2021/04/25 02:47:46;;;;;;;14.07;7.20;;;5.00;99.90;;;;;;5039786;28;20099;-92
2021/04/25 02:50:14;;;;;;;15.30;8.00;;;5.00;99.90;;;;;;5009614;28;20046;-92
2021/04/25 02:52:41;;;;;;;15.38;7.53;;;5.10;99.90;;;;;;5017127;28;20363;-92
2021/04/25 02:55:09;;;;;;;13.80;6.93;;;5.10;99.90;;;;;;5039224;28;20147;-91
2021/04/25 02:57:35;;;;;;;16.05;8.00;;;5.00;99.90;;;;;;5040919;28;20136;-91
2021/04/25 03:00:09;;;;;;;13.48;7.68;;;5.00;99.90;;;;;;5008229;28;20054;-92
2021/04/25 03:02:36;;;;;;;20.80;7.30;;;5.00;99.90;;;;;;5031741;28;20125;-91
2021/04/25 03:05:04;;;;;;;15.10;7.65;;;5.00;99.90;;;;;;5031180;28;20080;-92
2021/04/25 03:07:31;;;;;;;17.08;7.88;;;4.90;99.90;;;;;;5027796;28;20141;-92
2021/04/25 03:09:57;;;;;;;17.25;8.18;;;4.90;99.90;;;;;;5010439;28;20046;-91
2021/04/25 03:12:23;;;;;;;19.88;8.45;;;4.90;99.90;;;;;;5014161;28;20050;-91
2021/04/25 03:14:52;;;;;;;13.70;8.13;;;4.80;99.90;;;;;;5034301;28;20136;-91
2021/04/25 03:17:19;;;;;;;14.15;7.93;;;4.70;99.90;;;;;;5031670;28;20049;-91
2021/04/25 03:19:45;;;;;;;17.75;8.25;;;4.70;99.90;;;;;;5033199;28;20045;-92
2021/04/25 03:22:16;;;;;;;20.35;8.65;;;4.60;99.90;;;;;;5011564;28;20146;-91
2021/04/25 03:24:43;;;;;;;10.60;5.88;;;4.60;99.90;;;;;;5008980;28;20117;-91
2021/04/25 03:27:09;;;;;;;15.25;8.63;;;4.50;99.90;;;;;;5002468;28;20193;-92
2021/04/25 03:29:36;;;;;;;14.18;8.15;;;4.40;99.90;;;;;;5016387;28;20045;-91
2021/04/25 03:32:03;;;;;;;20.92;9.38;;;4.40;99.90;;;;;;5033595;28;20128;-91
2021/04/25 03:34:30;;;;;;;18.58;8.52;;;4.40;99.90;;;;;;5014899;28;20054;-89
2021/04/25 03:36:56;;;;;;;17.38;7.82;;;4.40;99.90;;;;;;5010399;28;20181;-90
2021/04/25 03:39:22;;;;;;;18.83;8.90;;;4.30;99.90;;;;;;5011354;28;20089;-91
2021/04/25 03:41:49;;;;;;;13.68;8.75;;;4.30;99.90;;;;;;5027744;28;20054;-91
2021/04/25 03:44:19;;;;;;;14.90;8.57;;;4.20;99.90;;;;;;5015895;28;20103;-91
2021/04/25 03:46:45;;;;;;;15.57;8.63;;;4.20;99.90;;;;;;5032210;28;20081;-91
2021/04/25 03:49:12;;;;;;;14.07;7.78;;;4.10;99.90;;;;;;5019239;28;20050;-90
2021/04/25 03:51:38;;;;;;;13.98;8.13;;;4.00;99.90;;;;;;5006981;28;20073;-92
2021/04/25 03:54:05;;;;;;;20.98;8.60;;;4.10;99.90;;;;;;5032658;28;20430;-92
2021/04/25 03:56:31;;;;;;;17.00;8.45;;;4.10;99.90;;;;;;5033052;28;20141;-91
2021/04/25 03:59:00;;;;;;;17.08;8.80;;;4.00;99.90;;;;;;5002745;28;20590;-91
2021/04/25 04:01:28;;;;;;;20.05;9.23;;;3.90;99.90;;;;;;5026907;28;20120;-91
2021/04/25 04:03:54;;;;;;;14.35;9.00;;;3.90;99.90;;;;;;5033787;28;20046;-90
2021/04/25 04:06:22;;;;;;;15.27;9.07;;;3.80;99.90;;;;;;5016162;28;20104;-91
2021/04/25 04:08:48;;;;;;;18.08;8.90;;;3.80;99.90;;;;;;5006467;28;20382;-91
2021/04/25 04:11:15;;;;;;;17.50;9.05;;;3.80;99.90;;;;;;4991639;28;20137;-90
2021/04/25 04:13:42;;;;;;;17.63;8.75;;;3.90;99.90;;;;;;5019888;28;20427;-91
2021/04/25 04:16:09;;;;;;;14.27;8.20;;;3.90;99.90;;;;;;5016074;28;20056;-93
2021/04/25 04:18:37;;;;;;;18.70;7.97;;;3.90;99.90;;;;;;5008032;28;20046;-91
2021/04/25 04:21:05;;;;;;;18.63;9.02;;;3.90;99.90;;;;;;5024420;28;20138;-90
2021/04/25 04:23:32;;;;;;;14.05;8.15;;;3.90;99.90;;;;;;5037155;28;20099;-90
2021/04/25 04:25:59;;;;;;;12.60;8.23;;;3.90;99.90;;;;;;5018371;28;20134;-91
2021/04/25 04:28:25;;;;;;;18.10;9.07;;;4.00;99.90;;;;;;5035251;28;20076;-90
2021/04/25 04:30:52;;;;;;;12.98;8.63;;;4.00;99.90;;;;;;5017893;28;20065;-91
2021/04/25 04:33:18;;;;;;;18.02;8.82;;;3.90;99.90;;;;;;5019032;28;20046;-91
2021/04/25 04:35:45;;;;;;;20.48;8.95;;;3.90;99.90;;;;;;5015637;28;20049;-91
2021/04/25 04:38:11;;;;;;;17.48;8.15;;;3.90;99.90;;;;;;5019800;28;20181;-89
2021/04/25 04:40:37;;;;;;;13.93;8.52;;;3.90;99.90;;;;;;5018744;28;20108;-90
2021/04/25 04:43:04;;;;;;;14.50;8.48;;;4.00;99.90;;;;;;5023778;28;20069;-90
2021/04/25 04:45:30;;;;;;;12.75;8.20;;;4.10;99.90;;;;;;5019836;28;20144;-91
2021/04/25 04:47:57;;;;;;;13.52;8.32;;;4.00;99.90;;;;;;5035662;28;20527;-91
2021/04/25 04:50:24;;;;;;;16.48;8.65;;;4.10;99.90;;;;;;5024032;28;20091;-91
2021/04/25 04:52:52;;;;;;;23.15;8.63;;;4.10;99.90;;;;;;5033372;28;20107;-91
2021/04/25 04:55:19;;;;;;;15.93;8.65;;;4.10;99.90;;;;;;5018148;28;20053;-91
2021/04/25 04:57:45;;;;;;;17.42;8.80;;;4.20;99.90;;;;;;5020428;28;20096;-91
2021/04/25 05:00:13;;;;;;;17.15;8.50;;;4.20;99.90;;;;;;5024706;28;20485;-92
2021/04/25 05:02:39;;;;;;;16.48;8.85;;;4.20;99.90;;;;;;5000382;28;20128;-92
2021/04/25 05:05:07;;;;;;;15.50;9.00;;;4.30;99.90;;;;;;5014198;28;20447;-92
2021/04/25 05:07:34;;;;;;;17.60;8.82;;;4.30;99.90;;;;;;5017494;28;20145;-90
2021/04/25 05:10:00;;;;;;;18.52;8.73;;;4.30;99.90;;;;;;5011214;28;20136;-91
2021/04/25 05:12:27;;;;;;;17.63;7.90;;;4.40;99.90;;;;;;5016593;28;20060;-92
2021/04/25 05:14:53;;;;;;;14.13;8.35;;;4.50;99.90;;;;;;5019050;28;20400;-92
2021/04/25 05:17:19;;;;;;;18.08;9.63;;;4.60;99.90;;;;;;5019306;28;20132;-90
2021/04/25 05:19:46;;;;;;;18.23;8.05;;;4.70;99.90;;;;;;5017296;28;20140;-91
2021/04/25 05:22:12;;;;;;;17.98;9.10;;;4.80;99.90;;;;;;5017785;28;20165;-91
2021/04/25 05:24:38;;;;;;;15.27;8.32;;;4.90;99.90;;;;;;5034175;28;20427;-91
2021/04/25 05:27:05;;;;;;;21.15;9.50;;;4.90;99.90;;;;;;5005865;28;20082;-89
2021/04/25 05:29:31;;;;;;;17.20;8.52;;;5.00;99.90;;;;;;5012482;28;20128;-92
2021/04/25 05:31:59;;;;;;;19.45;8.98;;;5.10;99.90;;;;;;5009150;28;20119;-91
2021/04/25 05:34:25;;;;;;;19.85;8.82;;;5.20;99.90;;;;;;5020096;28;20045;-92
2021/04/25 05:36:51;;;;;;;19.50;9.20;;;5.30;99.90;;;;;;5049159;28;20073;-91
2021/04/25 05:39:19;;;;;;;15.85;8.98;;;5.50;99.90;;;;;;5019498;28;20137;-92
2021/04/25 05:41:46;;;;;;;14.88;7.90;;;5.60;99.90;;;;;;5005314;28;20466;-89
2021/04/25 05:44:13;;;;;;;17.35;9.02;;;5.80;99.90;;;;;;5034304;28;20132;-91
2021/04/25 05:46:39;;;;;;;18.90;8.73;;;5.90;99.90;;;;;;5001180;28;20068;-89
2021/04/25 05:49:06;;;;;;;14.20;8.50;;;6.10;99.90;;;;;;5015862;28;20049;-89
2021/04/25 05:51:33;;;;;;;16.02;8.38;;;6.40;99.90;;;;;;5031626;28;20085;-90
2021/04/25 05:53:59;;;;;;;13.70;7.97;;;6.70;99.90;;;;;;5026111;28;20084;-91
2021/04/25 05:56:25;;;;;;;13.90;8.30;;;7.00;99.90;;;;;;5029800;28;20072;-87
2021/04/25 05:58:54;;;;;;;13.65;8.20;;;7.40;99.90;;;;;;5033196;28;20091;-89
2021/04/25 06:01:20;;;;;;;19.05;8.70;;;7.60;99.90;;;;;;4997694;28;20045;-87
2021/04/25 06:03:47;;;;;;;12.50;8.27;;;7.80;99.90;;;;;;5000180;28;20077;-85
2021/04/25 06:06:14;;;;;;;16.00;8.70;;;7.90;99.90;;;;;;5009932;28;20365;-86
2021/04/25 06:08:43;;;;;;;15.23;8.88;;;7.90;99.90;;;;;;5030385;28;20100;-86
2021/04/25 06:11:10;;;;;;;16.02;9.27;;;8.10;99.90;;;;;;4992445;28;20046;-85
2021/04/25 06:13:37;;;;;;;16.83;9.25;;;8.20;99.90;;;;;;5012442;28;20071;-86
2021/04/25 06:16:04;;;;;;;16.23;9.18;;;8.50;99.90;;;;;;5013000;28;20049;-88
2021/04/25 06:18:31;;;;;;;21.25;8.77;;;8.60;99.90;;;;;;5012130;28;20140;-87
2021/04/25 06:20:57;;;;;;;17.85;9.65;;;8.80;99.90;;;;;;5014899;28;20049;-85
2021/04/25 06:23:24;;;;;;;14.68;9.15;;;9.10;99.90;;;;;;5028859;28;20081;-86
2021/04/25 06:25:51;;;;;;;14.88;8.90;;;9.20;99.90;;;;;;5016420;28;20100;-87
2021/04/25 06:28:20;;;;;;;14.00;8.25;;;9.80;95.60;;;;;;5012574;28;20091;-87
2021/04/25 06:30:47;;;;;;;13.55;8.13;;;10.20;95.20;;;;;;5033024;28;20154;-85
2021/04/25 06:33:13;;;;;;;12.43;8.02;;;10.60;96.90;;;;;;5014418;28;20128;-86
2021/04/25 06:35:42;;;;;;;15.52;8.65;;;11.20;93.30;;;;;;5013215;28;20110;-86
2021/04/25 06:38:08;;;;;;;17.48;8.85;;;11.00;90.50;;;;;;5004596;28;20043;-86
2021/04/25 06:40:36;;;;;;;16.60;8.45;;;10.90;92.50;;;;;;5015857;28;20442;-85
2021/04/25 06:43:04;;;;;;;15.68;7.95;;;11.20;93.50;;;;;;5034528;28;20056;-85
2021/04/25 06:45:32;;;;;;;14.00;8.00;;;11.70;84.50;;;;;;5011737;28;20049;-85
2021/04/25 06:47:58;;;;;;;16.70;8.40;;;11.70;82.10;;;;;;5008298;28;20132;-85
2021/04/25 06:50:25;;;;;;;14.27;8.27;;;11.80;86.60;;;;;;5016483;28;20081;-87
2021/04/25 06:52:51;;;;;;;16.85;8.93;;;11.50;85.60;;;;;;5000811;28;20072;-88
2021/04/25 06:55:21;;;;;;;14.35;8.63;;;11.50;88.20;;;;;;5013325;28;20414;-88
2021/04/25 06:57:49;;;;;;;19.23;9.18;;;11.90;81.40;;;;;;5005693;28;20110;-89
2021/04/25 07:00:22;;;;;;;16.38;9.32;;;12.10;86.60;;;;;;5012683;28;20092;-88
2021/04/25 07:02:55;;;;;;;18.73;9.82;;;12.60;79.10;;;;;;5011502;28;20049;-89
2021/04/25 07:05:25;;;;;;;17.10;9.63;;;12.60;79.30;;;;;;5025873;28;20080;-91
2021/04/25 07:07:56;;;;;;;12.80;8.65;;;12.70;75.00;;;;;;5018389;28;20080;-90
2021/04/25 07:10:24;;;;;;;18.73;8.73;;;13.20;75.00;;;;;;5014495;28;20069;-90
2021/04/25 07:12:52;;;;;;;15.40;9.20;;;13.30;71.50;;;;;;5019357;28;20046;-90
2021/04/25 07:15:22;;;;;;;18.45;10.38;;;14.00;67.10;;;;;;5024849;28;20045;-89
2021/04/25 07:17:51;;;;;;;14.90;9.82;;;14.30;64.60;;;;;;5029194;28;20073;-89
2021/04/25 07:20:21;;;;;;;19.67;11.00;;;14.40;68.20;;;;;;5010180;28;20053;-91
2021/04/25 07:22:51;;;;;;;17.02;11.00;;;14.60;65.60;;;;;;5011722;28;20045;-90
2021/04/25 07:25:18;;;;;;;15.85;9.40;;;14.00;65.70;;;;;;5030052;28;20053;-90
2021/04/25 07:27:44;;;;;;;18.02;10.93;;;14.10;65.40;;;;;;5003561;28;20390;-89
2021/04/25 07:30:13;;;;;;;15.50;10.80;;;14.10;65.70;;;;;;5009434;28;20060;-89
2021/04/25 07:32:40;;;;;;;18.55;10.63;;;14.30;63.60;;;;;;5017479;28;20072;-88
2021/04/25 07:35:07;;;;;;;15.57;10.43;;;14.50;66.50;;;;;;5023728;28;20046;-89
2021/04/25 07:37:35;;;;;;;18.02;10.13;;;15.00;61.50;;;;;;5012810;28;20053;-92
2021/04/25 07:40:04;;;;;;;18.58;11.10;;;15.40;61.70;;;;;;5015189;28;20128;-90
2021/04/25 07:42:33;;;;;;;15.90;9.68;;;15.30;62.80;;;;;;5040987;28;20115;-87
2021/04/25 07:44:59;;;;;;;18.17;10.27;;;15.40;61.00;;;;;;5033255;28;20072;-88
2021/04/25 07:47:26;;;;;;;18.90;10.43;;;15.30;60.00;;;;;;5028248;28;20132;-89
2021/04/25 07:49:54;;;;;;;15.13;9.50;;;15.40;61.50;;;;;;5031669;28;20447;-88
2021/04/25 07:52:21;;;;;;;17.27;10.20;;;15.50;60.10;;;;;;5025262;28;20056;-89
2021/04/25 07:54:47;;;;;;;15.35;9.30;;;15.40;59.90;;;;;;5034391;28;20081;-89
2021/04/25 07:57:16;;;;;;;18.50;10.70;;;15.30;61.30;;;;;;4999054;28;20137;-91
2021/04/25 07:59:43;;;;;;;14.65;10.15;;;15.00;60.70;;;;;;5029159;28;20137;-90
2021/04/25 08:02:10;;;;;;;16.00;10.27;;;15.30;59.80;;;;;;4998488;28;20580;-89
2021/04/25 08:04:39;;;;;;;23.48;10.50;;;15.40;60.80;;;;;;5010796;28;20107;-89
2021/04/25 08:07:07;;;;;;;17.50;10.60;;;15.30;59.90;;;;;;5020681;28;20467;-89
2021/04/25 08:09:35;;;;;;;18.25;11.15;;;15.60;58.50;;;;;;5022540;28;20137;-89
2021/04/25 08:12:06;;;;;;;17.10;11.23;;;15.30;59.70;;;;;;5035179;28;20592;-91
2021/04/25 08:14:35;;;;;;;19.15;10.55;;;15.60;58.80;;;;;;5038478;28;20073;-89
2021/04/25 08:17:02;;;;;;;16.05;10.40;;;15.60;58.80;;;;;;5020669;28;20060;-88
2021/04/25 08:19:29;;;;;;;20.38;10.60;;;15.60;57.80;;;;;;5019402;28;20119;-88
2021/04/25 08:21:56;;;;;;;14.48;10.82;;;15.60;58.60;;;;;;5036178;28;20147;-89
2021/04/25 08:24:23;;;;;;;19.10;11.82;;;15.90;59.70;;;;;;5018305;28;20461;-89
2021/04/25 08:26:54;;;;;;;18.17;10.52;;;16.30;56.60;;;;;;5036277;28;20132;-90
2021/04/25 08:29:24;;;;;;;20.52;11.50;;;16.70;57.10;;;;;;5016295;28;20079;-89
2021/04/25 08:31:51;;;;;;;18.05;10.73;;;16.30;56.80;;;;;;5012409;28;20058;-90
2021/04/25 08:34:20;;;;;;;18.58;10.13;;;16.50;56.80;;;;;;5037017;28;20128;-89
2021/04/25 08:36:47;;;;;;;16.98;10.48;;;17.00;55.50;;;;;;5028647;28;20045;-91
2021/04/25 08:39:14;;;;;;;20.60;11.45;;;17.40;55.10;;;;;;5019740;28;20112;-90
2021/04/25 08:41:43;;;;;;;18.48;11.18;;;17.70;55.10;;;;;;5037949;28;20403;-88
2021/04/25 08:44:10;;;;;;;16.85;9.85;;;17.90;52.50;;;;;;5010520;28;20144;-88
2021/04/25 08:46:39;;;;;;;16.65;10.50;;;18.10;53.40;;;;;;5004414;28;20080;-92
2021/04/25 08:49:07;;;;;;;17.73;10.30;;;18.00;52.00;;;;;;5037515;28;20107;-90
2021/04/25 08:51:34;;;;;;;18.70;10.48;;;17.00;52.80;;;;;;5017824;28;20473;-91
2021/04/25 08:54:01;;;;;;;25.77;10.50;;;16.70;55.00;;;;;;5028336;28;20138;-91
2021/04/25 08:56:27;;;;;;;18.45;10.90;;;16.80;55.10;;;;;;5004499;28;20419;-89
2021/04/25 08:58:57;;;;;;;17.23;9.20;;;16.60;55.00;;;;;;5018928;28;20049;-83
2021/04/25 09:01:25;;;;;;;16.00;10.07;;;17.30;54.20;;;;;;5037106;28;20431;-89
2021/04/25 09:03:52;;;;;;;16.55;10.27;;;17.20;53.00;;;;;;5035402;28;20057;-89
2021/04/25 09:06:19;;;;;;;17.67;10.32;;;17.70;52.10;;;;;;5018841;28;20049;-89
2021/04/25 09:09:03;;;;;;;14.18;10.32;;;17.00;51.90;;;;;;5034368;28;20077;-89
2021/04/25 09:11:39;;;;;;;20.75;10.13;;;16.90;53.00;;;;;;5016405;28;20409;-89
2021/04/25 09:14:25;;;;;;;18.45;10.23;;;16.50;53.80;;;;;;5019148;28;20049;-90
2021/04/25 09:16:54;;;;;;;14.40;10.10;;;16.70;54.10;;;;;;5018720;28;20382;-88
2021/04/25 09:19:22;;;;;;;17.42;10.13;;;17.20;52.50;;;;;;5035172;28;20046;-88
2021/04/25 09:22:00;;;;;;;15.73;9.02;;;17.10;51.60;;;;;;5019910;28;20531;-90
2021/04/25 09:24:29;;;;;;;13.73;9.30;;;17.70;51.70;;;;;;5024075;28;20240;-89
2021/04/25 09:26:56;;;;;;;18.15;9.95;;;18.30;49.60;;;;;;5026453;28;20060;-91
2021/04/25 09:29:25;;;;;;;19.48;9.32;;;18.80;48.60;;;;;;5045345;28;20049;-90
2021/04/25 09:31:54;;;;;;;16.48;9.43;;;19.00;48.10;;;;;;5025142;28;20340;-92
2021/04/25 09:34:28;;;;;;;16.95;9.45;;;18.90;48.70;;;;;;5041184;28;20115;-92
2021/04/25 09:37:14;;;;;;;16.40;9.68;;;18.90;49.10;;;;;;5024344;28;20057;-91
2021/04/25 09:39:59;;;;;;;18.58;10.27;;;19.00;48.40;;;;;;5017049;28;20046;-90
2021/04/25 09:42:31;;;;;;;15.43;9.57;;;18.70;49.60;;;;;;5022893;28;20124;-91
2021/04/25 09:44:58;;;;;;;15.30;10.13;;;18.90;48.10;;;;;;5019661;28;20055;-89
2021/04/25 09:47:35;;;;;;;16.75;9.63;;;18.60;48.90;;;;;;5028627;28;20055;-92
2021/04/25 09:50:02;;;;;;;18.75;10.27;;;18.50;49.40;;;;;;5045459;28;20058;-88
2021/04/25 09:52:29;;;;;;;17.33;10.15;;;18.80;48.10;;;;;;5018282;28;20054;-88
2021/04/25 09:55:28;;;;;;;14.38;10.18;;;19.50;48.40;;;;;;5036449;28;20045;-88
2021/04/25 09:58:04;;;;;;;14.35;9.75;;;19.80;47.80;;;;;;5029055;28;20111;-87
2021/04/25 10:00:53;;;;;;;17.67;10.20;;;19.50;47.30;;;;;;5012918;28;20089;-87
2021/04/25 10:03:20;;;;;;;13.70;9.65;;;19.60;47.40;;;;;;5016166;28;20434;-87
2021/04/25 10:06:00;;;;;;;15.77;9.65;;;20.00;47.70;;;;;;5029516;28;20447;-88
2021/04/25 10:08:28;;;;;;;17.45;10.65;;;19.80;46.30;;;;;;5040891;28;20068;-87
2021/04/25 10:11:03;;;;;;;15.70;10.00;;;20.20;46.70;;;;;;5016714;28;20049;-87
2021/04/25 10:13:47;;;;;;;17.73;10.27;;;21.00;47.00;;;;;;5030527;28;20180;-89
2021/04/25 10:16:20;;;;;;;13.88;9.93;;;20.10;45.00;;;;;;5030797;28;20101;-87
2021/04/25 10:18:47;;;;;;;16.13;10.63;;;20.10;45.60;;;;;;5015589;28;20045;-88
2021/04/25 10:21:15;;;;;;;14.45;9.75;;;19.70;45.60;;;;;;5027367;28;20370;-88
2021/04/25 10:23:44;;;;;;;13.45;10.20;;;19.50;45.60;;;;;;5014097;28;20045;-87
2021/04/25 10:26:13;;;;;;;20.35;11.45;;;19.20;46.30;;;;;;5010421;28;20398;-89
2021/04/25 10:28:46;;;;;;;15.63;10.02;;;19.50;46.80;;;;;;5034463;28;20505;-91
2021/04/25 10:31:19;;;;;;;14.80;9.77;;;20.40;46.00;;;;;;5021385;28;20478;-89
2021/04/25 10:34:03;;;;;;;18.20;10.32;;;20.90;43.10;;;;;;5013459;28;20054;-89
2021/04/25 10:36:50;;;;;;;12.65;9.13;;;20.80;43.30;;;;;;5005895;28;20096;-86
2021/04/25 10:39:35;;;;;;;13.45;9.50;;;21.50;42.60;;;;;;5016193;28;20087;-87
2021/04/25 10:42:17;;;;;;;17.23;9.55;;;21.40;41.20;;;;;;5033682;28;20053;-88
2021/04/25 10:45:16;;;;;;;17.67;9.87;;;20.90;43.10;;;;;;5016705;28;20052;-89
2021/04/25 10:47:45;;;;;;;15.52;10.13;;;21.50;43.00;;;;;;5026814;28;20045;-87
2021/04/25 10:50:15;;;;;;;14.07;9.00;;;21.80;40.60;;;;;;5017342;28;20118;-87
2021/04/25 10:52:47;;;;;;;15.07;8.95;;;21.40;40.70;;;;;;5033861;28;20424;-87
2021/04/25 10:55:24;;;;;;;14.80;8.95;;;21.20;41.80;;;;;;5032212;28;20130;-90
2021/04/25 10:58:05;;;;;;;18.95;8.75;;;21.50;42.40;;;;;;5033284;28;20060;-90
2021/04/25 11:03:05;;;;;;;17.17;8.93;;;21.10;41.50;;;;;;5033932;28;20161;-89
2021/04/25 11:05:41;;;;;;;17.00;8.88;;;21.30;39.70;;;;;;5033490;28;20053;-88
2021/04/25 11:08:35;;;;;;;15.52;8.98;;;22.00;43.10;;;;;;5028475;28;20196;-88
2021/04/25 11:11:09;;;;;;;13.63;8.18;;;22.60;39.10;;;;;;5027050;28;20136;-88
2021/04/25 11:13:36;;;;;;;11.40;7.90;;;23.50;37.10;;;;;;5032474;28;20049;-86
2021/04/25 11:16:08;;;;;;;9.93;7.20;;;23.50;37.10;;;;;;5014168;28;20045;-87
2021/04/25 11:18:51;;;;;;;10.52;7.32;;;23.40;37.40;;;;;;5013542;28;20057;-87
2021/04/25 11:24:01;;;;;;;8.50;5.90;;;25.00;33.80;;;;;;5022513;28;20141;-86
2021/04/25 11:26:44;;;;;;;8.63;6.70;;;25.10;33.90;;;;;;5027726;28;20145;-88
2021/04/25 11:29:20;;;;;;;9.75;6.55;;;25.30;32.90;;;;;;5032075;28;20045;-88
2021/04/25 11:31:52;;;;;;;11.30;6.22;;;24.90;32.50;;;;;;5009920;28;20427;-88
2021/04/25 11:34:34;;;;;;;10.43;5.97;;;25.50;30.20;;;;;;5036881;28;20041;-87
2021/04/25 11:37:18;;;;;;;9.55;6.28;;;25.90;30.20;;;;;;5018495;28;20139;-88
2021/04/25 11:39:52;;;;;;;7.85;5.80;;;24.90;31.60;;;;;;5032991;28;20132;-88
2021/04/25 11:42:31;;;;;;;8.38;5.40;;;23.90;33.20;;;;;;5031299;28;20107;-88
2021/04/25 11:45:03;;;;;;;11.55;6.57;;;24.60;30.10;;;;;;5012002;28;20055;-88
2021/04/25 11:47:31;;;;;;;8.60;5.60;;;24.60;32.10;;;;;;5035405;28;20124;-89
2021/04/25 11:50:03;;;;;;;8.05;5.35;;;25.00;31.40;;;;;;5027924;28;20099;-89
2021/04/25 11:52:37;;;;;;;11.05;5.85;;;25.00;31.40;;;;;;5011234;28;20057;-90
2021/04/25 11:55:07;;;;;;;11.48;5.97;;;24.20;33.20;;;;;;5036509;28;20140;-90
2021/04/25 11:57:39;;;;;;;8.45;5.50;;;24.20;35.50;;;;;;5030788;28;20407;-86
2021/04/25 12:00:31;;;;;;;10.00;5.63;;;24.60;31.70;;;;;;5032655;28;20058;-88
2021/04/25 12:03:00;;;;;;;7.30;4.88;;;24.20;31.50;;;;;;5027659;28;20414;-90
2021/04/25 12:05:30;;;;;;;8.23;5.38;;;24.80;32.90;;;;;;5034842;28;20095;-89
2021/04/25 12:08:13;;;;;;;11.55;5.10;;;24.60;31.00;;;;;;5032564;28;20083;-91
2021/04/25 12:10:41;;;;;;;6.97;5.07;;;24.80;31.40;;;;;;5035306;28;20108;-90
2021/04/25 12:13:19;;;;;;;7.93;5.25;;;25.50;31.10;;;;;;5038907;28;20091;-90
2021/04/25 12:15:53;;;;;;;7.32;5.07;;;25.40;30.40;;;;;;5036275;28;20080;-89
2021/04/25 12:18:24;;;;;;;14.93;4.55;;;25.70;30.70;;;;;;5033360;28;20045;-90
2021/04/25 12:20:53;;;;;;;7.15;4.40;;;26.00;29.80;;;;;;5041216;28;20099;-89
2021/04/25 12:23:24;;;;;;;6.70;4.35;;;26.80;29.80;;;;;;5029280;28;20057;-89
2021/04/25 12:25:54;;;;;;;8.18;4.75;;;26.20;28.80;;;;;;5023778;28;20149;-88
2021/04/25 12:28:35;;;;;;;5.25;3.50;;;24.90;30.00;;;;;;5035987;28;20042;-88
2021/04/25 12:31:02;;;;;;;6.72;3.97;;;25.80;28.00;;;;;;5032926;28;20462;-88
2021/04/25 12:33:47;;;;;;;5.90;3.53;;;25.90;29.10;;;;;;5033262;28;20050;-87
2021/04/25 12:36:18;;;;;;;8.63;3.92;;;26.60;28.40;;;;;;5019063;28;20082;-87
2021/04/25 12:38:59;;;;;;;7.75;3.60;;;26.60;28.50;;;;;;5037782;28;20132;-89
2021/04/25 12:41:38;;;;;;;9.00;3.97;;;27.10;28.10;;;;;;5034821;28;20121;-88
2021/04/25 12:44:04;;;;;;;12.73;3.60;;;26.80;26.90;;;;;;5032795;28;20062;-88
2021/04/25 12:46:31;;;;;;;6.35;3.13;;;26.70;26.60;;;;;;5028502;28;20120;-88
2021/04/25 12:48:58;;;;;;;5.78;3.70;;;27.10;26.20;;;;;;5035053;28;20435;-90
2021/04/25 12:51:31;;;;;;;6.75;3.38;;;26.00;27.50;;;;;;5003855;28;20075;-89
2021/04/25 12:54:05;;;;;;;3.45;2.60;;;25.00;28.00;;;;;;5035887;28;20061;-87
2021/04/25 12:56:44;;;;;;;6.03;3.40;;;25.90;27.10;;;;;;5029234;28;20053;-87